sensor_id;sensor_type;location;lat;lon;timestamp;P1;durP1;ratioP1;P2;durP2;ratioP2
9481;SDS011;4779;48.062;11.672;2023-05-07T00:00:36;4.63;;;4.10;;
9481;SDS011;4779;48.062;11.672;2023-05-07T00:03:03;4.50;;;4.05;;
9481;SDS011;4779;48.062;11.672;2023-05-07T00:05:30;4.40;;;3.97;;
9481;SDS011;4779;48.062;11.672;2023-05-07T00:07:57;4.22;;;3.90;;
9481;SDS011;4779;48.062;11.672;2023-05-07T00:10:24;4.30;;;4.00;;
9481;SDS011;4779;48.062;11.672;2023-05-07T00:12:52;4.63;;;3.90;;
9481;SDS011;4779;48.062;11.672;2023-05-07T00:15:19;4.67;;;3.70;;
9481;SDS011;4779;48.062;11.672;2023-05-07T00:17:46;4.22;;;3.90;;
9481;SDS011;4779;48.062;11.672;2023-05-07T00:20:13;4.30;;;4.00;;
9481;SDS011;4779;48.062;11.672;2023-05-07T00:22:40;3.90;;;3.50;;
9481;SDS011;4779;48.062;11.672;2023-05-07T00:25:07;4.13;;;3.80;;
9481;SDS011;4779;48.062;11.672;2023-05-07T00:27:35;4.17;;;3.77;;
9481;SDS011;4779;48.062;11.672;2023-05-07T00:30:03;4.13;;;3.72;;
9481;SDS011;4779;48.062;11.672;2023-05-07T00:32:32;4.38;;;4.00;;
9481;SDS011;4779;48.062;11.672;2023-05-07T00:34:58;4.93;;;4.03;;
9481;SDS011;4779;48.062;11.672;2023-05-07T00:37:25;4.33;;;3.93;;
9481;SDS011;4779;48.062;11.672;2023-05-07T00:39:52;4.30;;;3.80;;
9481;SDS011;4779;48.062;11.672;2023-05-07T00:42:19;4.70;;;3.95;;
9481;SDS011;4779;48.062;11.672;2023-05-07T00:44:46;4.77;;;3.87;;
9481;SDS011;4779;48.062;11.672;2023-05-07T00:47:14;4.40;;;4.00;;
9481;SDS011;4779;48.062;11.672;2023-05-07T00:49:42;5.03;;;3.80;;
9481;SDS011;4779;48.062;11.672;2023-05-07T00:52:11;4.40;;;4.00;;
9481;SDS011;4779;48.062;11.672;2023-05-07T00:54:40;4.45;;;3.85;;
9481;SDS011;4779;48.062;11.672;2023-05-07T00:57:08;4.00;;;3.70;;
9481;SDS011;4779;48.062;11.672;2023-05-07T00:59:36;5.17;;;3.83;;
9481;SDS011;4779;48.062;11.672;2023-05-07T01:02:03;4.25;;;3.85;;
9481;SDS011;4779;48.062;11.672;2023-05-07T01:04:31;4.30;;;3.83;;
9481;SDS011;4779;48.062;11.672;2023-05-07T01:06:58;4.30;;;3.90;;
9481;SDS011;4779;48.062;11.672;2023-05-07T01:09:27;4.43;;;4.03;;
9481;SDS011;4779;48.062;11.672;2023-05-07T01:11:55;4.17;;;3.77;;
9481;SDS011;4779;48.062;11.672;2023-05-07T01:14:23;4.75;;;4.25;;
9481;SDS011;4779;48.062;11.672;2023-05-07T01:16:51;4.65;;;4.22;;
9481;SDS011;4779;48.062;11.672;2023-05-07T01:19:18;4.30;;;3.90;;
9481;SDS011;4779;48.062;11.672;2023-05-07T01:21:47;4.55;;;4.15;;
9481;SDS011;4779;48.062;11.672;2023-05-07T01:24:16;4.28;;;3.90;;
9481;SDS011;4779;48.062;11.672;2023-05-07T01:26:44;4.55;;;3.95;;
9481;SDS011;4779;48.062;11.672;2023-05-07T01:29:11;4.45;;;4.05;;
9481;SDS011;4779;48.062;11.672;2023-05-07T01:31:38;4.32;;;3.75;;
9481;SDS011;4779;48.062;11.672;2023-05-07T01:34:08;5.00;;;3.92;;
9481;SDS011;4779;48.062;11.672;2023-05-07T01:36:38;4.32;;;3.80;;
9481;SDS011;4779;48.062;11.672;2023-05-07T01:39:06;4.43;;;4.03;;
9481;SDS011;4779;48.062;11.672;2023-05-07T01:41:35;4.53;;;4.07;;
9481;SDS011;4779;48.062;11.672;2023-05-07T01:44:02;4.13;;;3.77;;
9481;SDS011;4779;48.062;11.672;2023-05-07T01:46:30;4.30;;;3.90;;
9481;SDS011;4779;48.062;11.672;2023-05-07T01:48:58;4.57;;;4.10;;
9481;SDS011;4779;48.062;11.672;2023-05-07T01:51:25;4.23;;;3.80;;
9481;SDS011;4779;48.062;11.672;2023-05-07T01:53:52;4.13;;;3.73;;
9481;SDS011;4779;48.062;11.672;2023-05-07T01:56:19;4.53;;;4.10;;
9481;SDS011;4779;48.062;11.672;2023-05-07T01:58:48;5.17;;;3.70;;
9481;SDS011;4779;48.062;11.672;2023-05-07T02:01:16;4.20;;;3.80;;
9481;SDS011;4779;48.062;11.672;2023-05-07T02:03:43;4.97;;;4.17;;
9481;SDS011;4779;48.062;11.672;2023-05-07T02:06:10;4.27;;;3.50;;
9481;SDS011;4779;48.062;11.672;2023-05-07T02:08:37;3.87;;;3.60;;
9481;SDS011;4779;48.062;11.672;2023-05-07T02:11:04;4.40;;;4.00;;
9481;SDS011;4779;48.062;11.672;2023-05-07T02:13:31;3.77;;;3.47;;
9481;SDS011;4779;48.062;11.672;2023-05-07T02:16:00;3.97;;;3.67;;
9481;SDS011;4779;48.062;11.672;2023-05-07T02:18:27;5.03;;;3.50;;
9481;SDS011;4779;48.062;11.672;2023-05-07T02:20:54;3.70;;;3.30;;
9481;SDS011;4779;48.062;11.672;2023-05-07T02:23:21;3.90;;;3.60;;
9481;SDS011;4779;48.062;11.672;2023-05-07T02:25:48;3.90;;;3.60;;
9481;SDS011;4779;48.062;11.672;2023-05-07T02:28:15;4.03;;;3.63;;
9481;SDS011;4779;48.062;11.672;2023-05-07T02:30:42;3.83;;;3.40;;
9481;SDS011;4779;48.062;11.672;2023-05-07T02:33:10;4.30;;;3.90;;
9481;SDS011;4779;48.062;11.672;2023-05-07T02:35:37;4.07;;;3.77;;
9481;SDS011;4779;48.062;11.672;2023-05-07T02:38:04;4.37;;;3.40;;
9481;SDS011;4779;48.062;11.672;2023-05-07T02:40:31;3.60;;;3.30;;
9481;SDS011;4779;48.062;11.672;2023-05-07T02:42:59;3.70;;;3.40;;
9481;SDS011;4779;48.062;11.672;2023-05-07T02:45:27;4.13;;;3.83;;
9481;SDS011;4779;48.062;11.672;2023-05-07T02:47:54;3.97;;;3.67;;
9481;SDS011;4779;48.062;11.672;2023-05-07T02:50:22;3.87;;;3.57;;
9481;SDS011;4779;48.062;11.672;2023-05-07T02:52:49;3.90;;;3.60;;
9481;SDS011;4779;48.062;11.672;2023-05-07T02:55:16;3.80;;;3.40;;
9481;SDS011;4779;48.062;11.672;2023-05-07T02:57:43;5.00;;;3.55;;
9481;SDS011;4779;48.062;11.672;2023-05-07T03:00:11;4.17;;;3.77;;
9481;SDS011;4779;48.062;11.672;2023-05-07T03:02:39;3.50;;;3.17;;
9481;SDS011;4779;48.062;11.672;2023-05-07T03:05:06;4.17;;;3.60;;
9481;SDS011;4779;48.062;11.672;2023-05-07T03:07:35;4.27;;;3.87;;
9481;SDS011;4779;48.062;11.672;2023-05-07T03:10:02;3.90;;;3.60;;
9481;SDS011;4779;48.062;11.672;2023-05-07T03:12:30;6.60;;;3.63;;
9481;SDS011;4779;48.062;11.672;2023-05-07T03:14:57;3.83;;;3.43;;
9481;SDS011;4779;48.062;11.672;2023-05-07T03:17:24;3.90;;;3.60;;
9481;SDS011;4779;48.062;11.672;2023-05-07T03:19:51;4.00;;;3.70;;
9481;SDS011;4779;48.062;11.672;2023-05-07T03:22:17;3.70;;;3.37;;
9481;SDS011;4779;48.062;11.672;2023-05-07T03:24:46;5.20;;;3.93;;
9481;SDS011;4779;48.062;11.672;2023-05-07T03:27:12;4.77;;;3.70;;
9481;SDS011;4779;48.062;11.672;2023-05-07T03:29:39;4.00;;;3.40;;
9481;SDS011;4779;48.062;11.672;2023-05-07T03:32:06;3.90;;;3.60;;
9481;SDS011;4779;48.062;11.672;2023-05-07T03:34:33;3.63;;;3.33;;
9481;SDS011;4779;48.062;11.672;2023-05-07T03:37:00;4.00;;;3.37;;
9481;SDS011;4779;48.062;11.672;2023-05-07T03:39:27;3.37;;;3.17;;
9481;SDS011;4779;48.062;11.672;2023-05-07T03:41:55;3.80;;;3.50;;
9481;SDS011;4779;48.062;11.672;2023-05-07T03:44:22;3.57;;;3.20;;
9481;SDS011;4779;48.062;11.672;2023-05-07T03:46:49;6.00;;;3.60;;
9481;SDS011;4779;48.062;11.672;2023-05-07T03:49:16;5.10;;;3.73;;
9481;SDS011;4779;48.062;11.672;2023-05-07T03:51:43;3.43;;;3.13;;
9481;SDS011;4779;48.062;11.672;2023-05-07T03:54:10;3.67;;;3.37;;
9481;SDS011;4779;48.062;11.672;2023-05-07T03:56:37;3.07;;;2.87;;
9481;SDS011;4779;48.062;11.672;2023-05-07T03:59:05;3.70;;;3.40;;
9481;SDS011;4779;48.062;11.672;2023-05-07T04:01:32;3.90;;;3.38;;
9481;SDS011;4779;48.062;11.672;2023-05-07T04:03:59;3.50;;;3.20;;
9481;SDS011;4779;48.062;11.672;2023-05-07T04:06:28;3.67;;;3.37;;
9481;SDS011;4779;48.062;11.672;2023-05-07T04:08:55;3.73;;;3.43;;
9481;SDS011;4779;48.062;11.672;2023-05-07T04:11:22;3.40;;;3.10;;
9481;SDS011;4779;48.062;11.672;2023-05-07T04:13:50;4.30;;;3.40;;
9481;SDS011;4779;48.062;11.672;2023-05-07T04:16:18;3.80;;;3.50;;
9481;SDS011;4779;48.062;11.672;2023-05-07T04:18:45;4.13;;;3.73;;
9481;SDS011;4779;48.062;11.672;2023-05-07T04:21:15;3.27;;;2.97;;
9481;SDS011;4779;48.062;11.672;2023-05-07T04:23:42;5.17;;;3.83;;
9481;SDS011;4779;48.062;11.672;2023-05-07T04:26:09;3.30;;;3.10;;
9481;SDS011;4779;48.062;11.672;2023-05-07T04:28:36;3.30;;;3.03;;
9481;SDS011;4779;48.062;11.672;2023-05-07T04:31:03;4.13;;;3.20;;
9481;SDS011;4779;48.062;11.672;2023-05-07T04:33:31;3.60;;;3.30;;
9481;SDS011;4779;48.062;11.672;2023-05-07T04:35:58;3.40;;;3.20;;
9481;SDS011;4779;48.062;11.672;2023-05-07T04:38:27;4.17;;;3.30;;
9481;SDS011;4779;48.062;11.672;2023-05-07T04:40:55;3.77;;;3.40;;
9481;SDS011;4779;48.062;11.672;2023-05-07T04:43:22;3.83;;;3.47;;
9481;SDS011;4779;48.062;11.672;2023-05-07T04:45:50;3.63;;;3.33;;
9481;SDS011;4779;48.062;11.672;2023-05-07T04:48:17;3.77;;;3.33;;
9481;SDS011;4779;48.062;11.672;2023-05-07T04:50:48;3.70;;;3.40;;
9481;SDS011;4779;48.062;11.672;2023-05-07T04:53:15;3.20;;;3.00;;
9481;SDS011;4779;48.062;11.672;2023-05-07T04:55:43;3.50;;;3.20;;
9481;SDS011;4779;48.062;11.672;2023-05-07T04:58:10;3.43;;;3.13;;
9481;SDS011;4779;48.062;11.672;2023-05-07T05:00:37;3.43;;;3.23;;
9481;SDS011;4779;48.062;11.672;2023-05-07T05:03:04;3.87;;;3.50;;
9481;SDS011;4779;48.062;11.672;2023-05-07T05:05:32;3.87;;;3.43;;
9481;SDS011;4779;48.062;11.672;2023-05-07T05:08:00;3.67;;;3.37;;
9481;SDS011;4779;48.062;11.672;2023-05-07T05:10:27;3.57;;;3.33;;
9481;SDS011;4779;48.062;11.672;2023-05-07T05:12:54;4.33;;;3.50;;
9481;SDS011;4779;48.062;11.672;2023-05-07T05:15:21;3.57;;;3.27;;
9481;SDS011;4779;48.062;11.672;2023-05-07T05:17:48;5.23;;;3.27;;
9481;SDS011;4779;48.062;11.672;2023-05-07T05:20:15;3.57;;;3.20;;
9481;SDS011;4779;48.062;11.672;2023-05-07T05:22:42;3.60;;;3.30;;
9481;SDS011;4779;48.062;11.672;2023-05-07T05:25:11;3.47;;;3.07;;
9481;SDS011;4779;48.062;11.672;2023-05-07T05:27:37;4.17;;;3.33;;
9481;SDS011;4779;48.062;11.672;2023-05-07T05:30:05;3.57;;;3.27;;
9481;SDS011;4779;48.062;11.672;2023-05-07T05:32:32;4.37;;;3.30;;
9481;SDS011;4779;48.062;11.672;2023-05-07T05:34:59;3.20;;;3.00;;
9481;SDS011;4779;48.062;11.672;2023-05-07T05:37:26;4.57;;;3.20;;
9481;SDS011;4779;48.062;11.672;2023-05-07T05:39:55;4.23;;;3.30;;
9481;SDS011;4779;48.062;11.672;2023-05-07T05:42:23;3.10;;;2.90;;
9481;SDS011;4779;48.062;11.672;2023-05-07T05:44:50;3.92;;;3.47;;
9481;SDS011;4779;48.062;11.672;2023-05-07T05:47:17;3.55;;;3.25;;
9481;SDS011;4779;48.062;11.672;2023-05-07T05:49:44;3.60;;;3.28;;
9481;SDS011;4779;48.062;11.672;2023-05-07T05:52:11;4.75;;;3.22;;
9481;SDS011;4779;48.062;11.672;2023-05-07T05:54:39;3.78;;;3.47;;
9481;SDS011;4779;48.062;11.672;2023-05-07T05:57:06;3.63;;;3.33;;
9481;SDS011;4779;48.062;11.672;2023-05-07T05:59:34;4.07;;;3.67;;
9481;SDS011;4779;48.062;11.672;2023-05-07T06:02:01;3.80;;;3.40;;
9481;SDS011;4779;48.062;11.672;2023-05-07T06:04:28;4.50;;;3.58;;
9481;SDS011;4779;48.062;11.672;2023-05-07T06:06:55;4.40;;;3.83;;
9481;SDS011;4779;48.062;11.672;2023-05-07T06:09:22;4.43;;;4.00;;
9481;SDS011;4779;48.062;11.672;2023-05-07T06:11:49;5.38;;;3.90;;
9481;SDS011;4779;48.062;11.672;2023-05-07T06:14:16;3.95;;;3.65;;
9481;SDS011;4779;48.062;11.672;2023-05-07T06:16:44;4.70;;;3.75;;
9481;SDS011;4779;48.062;11.672;2023-05-07T06:19:11;4.32;;;3.92;;
9481;SDS011;4779;48.062;11.672;2023-05-07T06:21:38;4.32;;;3.92;;
9481;SDS011;4779;48.062;11.672;2023-05-07T06:24:06;4.15;;;3.55;;
9481;SDS011;4779;48.062;11.672;2023-05-07T06:26:33;4.85;;;3.85;;
9481;SDS011;4779;48.062;11.672;2023-05-07T06:29:00;4.00;;;3.70;;
9481;SDS011;4779;48.062;11.672;2023-05-07T06:31:29;3.83;;;3.40;;
9481;SDS011;4779;48.062;11.672;2023-05-07T06:33:58;3.70;;;3.40;;
9481;SDS011;4779;48.062;11.672;2023-05-07T06:36:27;3.45;;;3.15;;
9481;SDS011;4779;48.062;11.672;2023-05-07T06:38:54;3.97;;;3.42;;
9481;SDS011;4779;48.062;11.672;2023-05-07T06:41:21;3.58;;;2.95;;
9481;SDS011;4779;48.062;11.672;2023-05-07T06:43:47;3.67;;;3.05;;
9481;SDS011;4779;48.062;11.672;2023-05-07T06:46:14;4.18;;;3.10;;
9481;SDS011;4779;48.062;11.672;2023-05-07T06:48:41;3.90;;;3.35;;
9481;SDS011;4779;48.062;11.672;2023-05-07T06:51:10;2.88;;;2.67;;
9481;SDS011;4779;48.062;11.672;2023-05-07T06:53:36;3.00;;;2.80;;
9481;SDS011;4779;48.062;11.672;2023-05-07T06:56:04;4.60;;;3.13;;
9481;SDS011;4779;48.062;11.672;2023-05-07T06:58:31;3.38;;;2.95;;
9481;SDS011;4779;48.062;11.672;2023-05-07T07:00:58;3.75;;;2.90;;
9481;SDS011;4779;48.062;11.672;2023-05-07T07:03:25;3.55;;;3.10;;
9481;SDS011;4779;48.062;11.672;2023-05-07T07:05:52;4.38;;;3.42;;
9481;SDS011;4779;48.062;11.672;2023-05-07T07:08:21;3.30;;;3.03;;
9481;SDS011;4779;48.062;11.672;2023-05-07T07:10:48;3.78;;;3.17;;
9481;SDS011;4779;48.062;11.672;2023-05-07T07:13:15;3.28;;;2.90;;
9481;SDS011;4779;48.062;11.672;2023-05-07T07:15:42;3.15;;;2.70;;
9481;SDS011;4779;48.062;11.672;2023-05-07T07:18:10;3.63;;;2.50;;
9481;SDS011;4779;48.062;11.672;2023-05-07T07:20:37;2.78;;;2.55;;
9481;SDS011;4779;48.062;11.672;2023-05-07T07:23:05;2.60;;;2.40;;
9481;SDS011;4779;48.062;11.672;2023-05-07T07:25:33;3.00;;;2.70;;
9481;SDS011;4779;48.062;11.672;2023-05-07T07:28:00;3.42;;;2.40;;
9481;SDS011;4779;48.062;11.672;2023-05-07T07:30:27;4.25;;;2.47;;
9481;SDS011;4779;48.062;11.672;2023-05-07T07:32:54;3.28;;;2.25;;
9481;SDS011;4779;48.062;11.672;2023-05-07T07:35:25;2.72;;;2.45;;
9481;SDS011;4779;48.062;11.672;2023-05-07T07:37:52;2.95;;;2.67;;
9481;SDS011;4779;48.062;11.672;2023-05-07T07:40:19;2.88;;;2.65;;
9481;SDS011;4779;48.062;11.672;2023-05-07T07:42:47;2.28;;;2.08;;
9481;SDS011;4779;48.062;11.672;2023-05-07T07:45:14;2.55;;;2.30;;
9481;SDS011;4779;48.062;11.672;2023-05-07T07:47:41;3.13;;;2.40;;
9481;SDS011;4779;48.062;11.672;2023-05-07T07:50:08;2.60;;;2.40;;
9481;SDS011;4779;48.062;11.672;2023-05-07T07:52:35;3.08;;;2.35;;
9481;SDS011;4779;48.062;11.672;2023-05-07T07:55:03;2.65;;;2.45;;
9481;SDS011;4779;48.062;11.672;2023-05-07T07:57:30;2.90;;;2.60;;
9481;SDS011;4779;48.062;11.672;2023-05-07T07:59:58;2.83;;;2.63;;
9481;SDS011;4779;48.062;11.672;2023-05-07T08:02:25;2.60;;;2.40;;
9481;SDS011;4779;48.062;11.672;2023-05-07T08:04:52;3.33;;;2.38;;
9481;SDS011;4779;48.062;11.672;2023-05-07T08:07:19;4.47;;;2.20;;
9481;SDS011;4779;48.062;11.672;2023-05-07T08:09:47;5.47;;;2.72;;
9481;SDS011;4779;48.062;11.672;2023-05-07T08:12:14;3.03;;;2.25;;
9481;SDS011;4779;48.062;11.672;2023-05-07T08:14:41;3.20;;;2.60;;
9481;SDS011;4779;48.062;11.672;2023-05-07T08:17:10;2.70;;;2.50;;
9481;SDS011;4779;48.062;11.672;2023-05-07T08:19:37;2.30;;;2.10;;
9481;SDS011;4779;48.062;11.672;2023-05-07T08:22:04;4.35;;;2.20;;
9481;SDS011;4779;48.062;11.672;2023-05-07T08:24:31;3.28;;;2.40;;
9481;SDS011;4779;48.062;11.672;2023-05-07T08:26:58;3.65;;;2.30;;
9481;SDS011;4779;48.062;11.672;2023-05-07T08:29:25;4.28;;;2.53;;
9481;SDS011;4779;48.062;11.672;2023-05-07T08:31:52;3.63;;;2.33;;
9481;SDS011;4779;48.062;11.672;2023-05-07T08:34:21;2.83;;;2.20;;
9481;SDS011;4779;48.062;11.672;2023-05-07T08:36:48;3.05;;;2.30;;
9481;SDS011;4779;48.062;11.672;2023-05-07T08:39:16;2.75;;;2.28;;
9481;SDS011;4779;48.062;11.672;2023-05-07T08:41:44;2.67;;;2.30;;
9481;SDS011;4779;48.062;11.672;2023-05-07T08:44:12;3.47;;;2.70;;
9481;SDS011;4779;48.062;11.672;2023-05-07T08:46:40;4.38;;;2.30;;
9481;SDS011;4779;48.062;11.672;2023-05-07T08:49:08;2.50;;;2.40;;
9481;SDS011;4779;48.062;11.672;2023-05-07T08:51:36;3.78;;;2.58;;
9481;SDS011;4779;48.062;11.672;2023-05-07T08:54:04;2.60;;;2.40;;
9481;SDS011;4779;48.062;11.672;2023-05-07T08:56:31;4.68;;;2.55;;
9481;SDS011;4779;48.062;11.672;2023-05-07T08:58:58;2.70;;;2.50;;
9481;SDS011;4779;48.062;11.672;2023-05-07T09:01:25;3.22;;;2.50;;
9481;SDS011;4779;48.062;11.672;2023-05-07T09:03:52;2.88;;;1.90;;
9481;SDS011;4779;48.062;11.672;2023-05-07T09:06:20;2.80;;;2.10;;
9481;SDS011;4779;48.062;11.672;2023-05-07T09:08:51;2.60;;;2.00;;
9481;SDS011;4779;48.062;11.672;2023-05-07T09:11:20;3.00;;;1.95;;
9481;SDS011;4779;48.062;11.672;2023-05-07T09:13:48;3.83;;;2.10;;
9481;SDS011;4779;48.062;11.672;2023-05-07T09:16:15;2.20;;;1.92;;
9481;SDS011;4779;48.062;11.672;2023-05-07T09:18:42;2.55;;;2.05;;
9481;SDS011;4779;48.062;11.672;2023-05-07T09:21:10;2.30;;;2.00;;
9481;SDS011;4779;48.062;11.672;2023-05-07T09:23:37;2.05;;;1.90;;
9481;SDS011;4779;48.062;11.672;2023-05-07T09:26:06;2.60;;;2.40;;
9481;SDS011;4779;48.062;11.672;2023-05-07T09:28:37;2.38;;;2.17;;
9481;SDS011;4779;48.062;11.672;2023-05-07T09:31:06;2.75;;;2.47;;
9481;SDS011;4779;48.062;11.672;2023-05-07T09:33:32;1.98;;;1.88;;
9481;SDS011;4779;48.062;11.672;2023-05-07T09:36:01;2.17;;;1.98;;
9481;SDS011;4779;48.062;11.672;2023-05-07T09:38:29;2.28;;;2.05;;
9481;SDS011;4779;48.062;11.672;2023-05-07T09:41:03;2.17;;;1.92;;
9481;SDS011;4779;48.062;11.672;2023-05-07T09:43:33;2.08;;;1.70;;
9481;SDS011;4779;48.062;11.672;2023-05-07T09:46:02;4.13;;;1.55;;
9481;SDS011;4779;48.062;11.672;2023-05-07T09:48:32;2.70;;;1.80;;
9481;SDS011;4779;48.062;11.672;2023-05-07T09:51:03;3.38;;;1.77;;
9481;SDS011;4779;48.062;11.672;2023-05-07T09:53:37;2.95;;;1.60;;
9481;SDS011;4779;48.062;11.672;2023-05-07T09:56:06;2.08;;;1.90;;
9481;SDS011;4779;48.062;11.672;2023-05-07T09:58:34;1.73;;;1.63;;
9481;SDS011;4779;48.062;11.672;2023-05-07T10:01:04;1.80;;;1.50;;
9481;SDS011;4779;48.062;11.672;2023-05-07T10:03:31;2.45;;;1.55;;
9481;SDS011;4779;48.062;11.672;2023-05-07T10:06:01;2.05;;;1.65;;
9481;SDS011;4779;48.062;11.672;2023-05-07T10:08:30;2.83;;;1.63;;
9481;SDS011;4779;48.062;11.672;2023-05-07T10:10:57;1.73;;;1.20;;
9481;SDS011;4779;48.062;11.672;2023-05-07T10:13:25;2.17;;;1.50;;
9481;SDS011;4779;48.062;11.672;2023-05-07T10:15:54;1.98;;;1.15;;
9481;SDS011;4779;48.062;11.672;2023-05-07T10:18:21;1.92;;;1.52;;
9481;SDS011;4779;48.062;11.672;2023-05-07T10:20:54;1.75;;;1.65;;
9481;SDS011;4779;48.062;11.672;2023-05-07T10:23:26;1.70;;;1.60;;
9481;SDS011;4779;48.062;11.672;2023-05-07T10:25:54;1.95;;;1.60;;
9481;SDS011;4779;48.062;11.672;2023-05-07T10:28:23;2.20;;;1.67;;
9481;SDS011;4779;48.062;11.672;2023-05-07T10:30:58;3.00;;;1.60;;
9481;SDS011;4779;48.062;11.672;2023-05-07T10:33:33;2.55;;;1.70;;
9481;SDS011;4779;48.062;11.672;2023-05-07T10:36:02;2.00;;;1.67;;
9481;SDS011;4779;48.062;11.672;2023-05-07T10:38:30;2.33;;;1.63;;
9481;SDS011;4779;48.062;11.672;2023-05-07T10:40:57;2.63;;;1.70;;
9481;SDS011;4779;48.062;11.672;2023-05-07T10:43:24;2.30;;;1.90;;
9481;SDS011;4779;48.062;11.672;2023-05-07T10:46:11;2.40;;;1.65;;
9481;SDS011;4779;48.062;11.672;2023-05-07T10:51:36;2.03;;;1.77;;
9481;SDS011;4779;48.062;11.672;2023-05-07T10:54:22;2.35;;;1.77;;
9481;SDS011;4779;48.062;11.672;2023-05-07T10:56:51;2.08;;;1.55;;
9481;SDS011;4779;48.062;11.672;2023-05-07T11:02:10;2.13;;;1.83;;
9481;SDS011;4779;48.062;11.672;2023-05-07T11:04:39;2.38;;;1.80;;
9481;SDS011;4779;48.062;11.672;2023-05-07T11:07:18;1.88;;;1.60;;
9481;SDS011;4779;48.062;11.672;2023-05-07T11:09:54;2.10;;;1.52;;
9481;SDS011;4779;48.062;11.672;2023-05-07T11:12:51;3.20;;;1.40;;
9481;SDS011;4779;48.062;11.672;2023-05-07T11:18:16;2.83;;;1.42;;
9481;SDS011;4779;48.062;11.672;2023-05-07T11:20:54;2.22;;;1.48;;
9481;SDS011;4779;48.062;11.672;2023-05-07T11:26:41;1.88;;;1.52;;
9481;SDS011;4779;48.062;11.672;2023-05-07T11:29:13;1.52;;;1.42;;
9481;SDS011;4779;48.062;11.672;2023-05-07T11:31:41;1.80;;;1.70;;
9481;SDS011;4779;48.062;11.672;2023-05-07T11:34:10;2.55;;;2.22;;
9481;SDS011;4779;48.062;11.672;2023-05-07T11:36:42;2.13;;;2.00;;
9481;SDS011;4779;48.062;11.672;2023-05-07T11:39:26;3.58;;;2.42;;
9481;SDS011;4779;48.062;11.672;2023-05-07T11:41:54;2.42;;;2.03;;
9481;SDS011;4779;48.062;11.672;2023-05-07T11:44:21;3.17;;;2.30;;
9481;SDS011;4779;48.062;11.672;2023-05-07T11:46:48;2.80;;;2.10;;
9481;SDS011;4779;48.062;11.672;2023-05-07T11:49:16;1.83;;;1.73;;
9481;SDS011;4779;48.062;11.672;2023-05-07T11:51:44;2.72;;;1.90;;
9481;SDS011;4779;48.062;11.672;2023-05-07T11:54:11;2.00;;;1.80;;
9481;SDS011;4779;48.062;11.672;2023-05-07T11:56:42;2.80;;;2.20;;
9481;SDS011;4779;48.062;11.672;2023-05-07T11:59:12;2.65;;;1.95;;
9481;SDS011;4779;48.062;11.672;2023-05-07T12:01:44;2.38;;;1.88;;
9481;SDS011;4779;48.062;11.672;2023-05-07T12:04:12;4.15;;;2.65;;
9481;SDS011;4779;48.062;11.672;2023-05-07T12:06:40;3.83;;;2.00;;
9481;SDS011;4779;48.062;11.672;2023-05-07T12:09:07;2.53;;;2.20;;
9481;SDS011;4779;48.062;11.672;2023-05-07T12:11:36;3.63;;;2.33;;
9481;SDS011;4779;48.062;11.672;2023-05-07T12:14:05;2.13;;;2.03;;
9481;SDS011;4779;48.062;11.672;2023-05-07T12:16:31;3.75;;;2.30;;
9481;SDS011;4779;48.062;11.672;2023-05-07T12:18:59;3.72;;;2.38;;
9481;SDS011;4779;48.062;11.672;2023-05-07T12:21:26;2.28;;;2.15;;
9481;SDS011;4779;48.062;11.672;2023-05-07T12:23:54;3.22;;;2.55;;
9481;SDS011;4779;48.062;11.672;2023-05-07T12:26:22;3.17;;;2.50;;
9481;SDS011;4779;48.062;11.672;2023-05-07T12:28:49;2.65;;;2.45;;
9481;SDS011;4779;48.062;11.672;2023-05-07T12:31:16;4.43;;;2.53;;
9481;SDS011;4779;48.062;11.672;2023-05-07T12:33:44;2.70;;;2.40;;
9481;SDS011;4779;48.062;11.672;2023-05-07T12:36:12;2.45;;;2.25;;
9481;SDS011;4779;48.062;11.672;2023-05-07T12:38:39;4.20;;;2.92;;
9481;SDS011;4779;48.062;11.672;2023-05-07T12:41:08;4.18;;;2.70;;
9481;SDS011;4779;48.062;11.672;2023-05-07T12:43:37;4.10;;;2.60;;
9481;SDS011;4779;48.062;11.672;2023-05-07T12:46:05;3.63;;;2.25;;
9481;SDS011;4779;48.062;11.672;2023-05-07T12:48:33;2.33;;;2.10;;
9481;SDS011;4779;48.062;11.672;2023-05-07T12:51:02;2.53;;;2.33;;
9481;SDS011;4779;48.062;11.672;2023-05-07T12:53:29;2.13;;;2.00;;
9481;SDS011;4779;48.062;11.672;2023-05-07T12:55:56;4.88;;;2.35;;
9481;SDS011;4779;48.062;11.672;2023-05-07T12:58:26;2.90;;;2.55;;
9481;SDS011;4779;48.062;11.672;2023-05-07T13:00:55;2.53;;;1.98;;
9481;SDS011;4779;48.062;11.672;2023-05-07T13:03:25;2.65;;;2.45;;
9481;SDS011;4779;48.062;11.672;2023-05-07T13:05:52;3.45;;;2.58;;
9481;SDS011;4779;48.062;11.672;2023-05-07T13:08:28;2.38;;;2.17;;
9481;SDS011;4779;48.062;11.672;2023-05-07T13:10:57;2.78;;;2.58;;
9481;SDS011;4779;48.062;11.672;2023-05-07T13:13:29;2.70;;;2.50;;
9481;SDS011;4779;48.062;11.672;2023-05-07T13:15:56;2.88;;;2.50;;
9481;SDS011;4779;48.062;11.672;2023-05-07T13:18:24;2.97;;;2.38;;
9481;SDS011;4779;48.062;11.672;2023-05-07T13:20:51;2.88;;;2.60;;
9481;SDS011;4779;48.062;11.672;2023-05-07T13:23:18;2.42;;;2.22;;
9481;SDS011;4779;48.062;11.672;2023-05-07T13:25:45;2.50;;;2.30;;
9481;SDS011;4779;48.062;11.672;2023-05-07T13:28:12;2.95;;;2.25;;
9481;SDS011;4779;48.062;11.672;2023-05-07T13:30:40;3.15;;;2.33;;
9481;SDS011;4779;48.062;11.672;2023-05-07T13:33:07;3.60;;;2.40;;
9481;SDS011;4779;48.062;11.672;2023-05-07T13:35:35;3.72;;;2.55;;
9481;SDS011;4779;48.062;11.672;2023-05-07T13:38:02;3.47;;;1.95;;
9481;SDS011;4779;48.062;11.672;2023-05-07T13:40:29;2.58;;;2.38;;
9481;SDS011;4779;48.062;11.672;2023-05-07T13:42:57;3.08;;;2.22;;
9481;SDS011;4779;48.062;11.672;2023-05-07T13:45:25;2.00;;;1.90;;
9481;SDS011;4779;48.062;11.672;2023-05-07T13:47:56;2.70;;;2.00;;
9481;SDS011;4779;48.062;11.672;2023-05-07T13:50:23;2.42;;;2.00;;
9481;SDS011;4779;48.062;11.672;2023-05-07T13:52:51;2.47;;;2.28;;
9481;SDS011;4779;48.062;11.672;2023-05-07T13:55:19;3.88;;;2.05;;
9481;SDS011;4779;48.062;11.672;2023-05-07T13:57:46;2.13;;;1.80;;
9481;SDS011;4779;48.062;11.672;2023-05-07T14:00:14;2.15;;;1.92;;
9481;SDS011;4779;48.062;11.672;2023-05-07T14:02:41;2.33;;;2.13;;
9481;SDS011;4779;48.062;11.672;2023-05-07T14:05:10;3.03;;;1.88;;
9481;SDS011;4779;48.062;11.672;2023-05-07T14:07:38;2.25;;;2.00;;
9481;SDS011;4779;48.062;11.672;2023-05-07T14:10:05;2.53;;;1.80;;
9481;SDS011;4779;48.062;11.672;2023-05-07T14:12:33;2.58;;;1.60;;
9481;SDS011;4779;48.062;11.672;2023-05-07T14:15:00;1.80;;;1.70;;
9481;SDS011;4779;48.062;11.672;2023-05-07T14:17:27;2.65;;;1.90;;
9481;SDS011;4779;48.062;11.672;2023-05-07T14:19:54;2.38;;;2.17;;
9481;SDS011;4779;48.062;11.672;2023-05-07T14:22:22;1.95;;;1.80;;
9481;SDS011;4779;48.062;11.672;2023-05-07T14:24:49;2.33;;;1.90;;
9481;SDS011;4779;48.062;11.672;2023-05-07T14:27:17;2.25;;;2.05;;
9481;SDS011;4779;48.062;11.672;2023-05-07T14:29:43;2.50;;;2.30;;
9481;SDS011;4779;48.062;11.672;2023-05-07T14:32:15;2.40;;;2.20;;
9481;SDS011;4779;48.062;11.672;2023-05-07T14:34:42;2.58;;;2.30;;
9481;SDS011;4779;48.062;11.672;2023-05-07T14:37:09;2.45;;;2.25;;
9481;SDS011;4779;48.062;11.672;2023-05-07T14:39:38;2.10;;;2.00;;
9481;SDS011;4779;48.062;11.672;2023-05-07T14:42:05;2.00;;;1.90;;
9481;SDS011;4779;48.062;11.672;2023-05-07T14:44:32;2.17;;;2.03;;
9481;SDS011;4779;48.062;11.672;2023-05-07T14:46:59;2.50;;;2.30;;
9481;SDS011;4779;48.062;11.672;2023-05-07T14:49:26;2.55;;;1.88;;
9481;SDS011;4779;48.062;11.672;2023-05-07T14:51:53;3.47;;;2.13;;
9481;SDS011;4779;48.062;11.672;2023-05-07T14:54:23;1.98;;;1.88;;
9481;SDS011;4779;48.062;11.672;2023-05-07T14:56:51;3.80;;;2.03;;
9481;SDS011;4779;48.062;11.672;2023-05-07T14:59:18;2.58;;;2.25;;
9481;SDS011;4779;48.062;11.672;2023-05-07T15:01:46;3.13;;;2.03;;
9481;SDS011;4779;48.062;11.672;2023-05-07T15:04:13;3.72;;;2.08;;
9481;SDS011;4779;48.062;11.672;2023-05-07T15:06:40;2.28;;;2.10;;
9481;SDS011;4779;48.062;11.672;2023-05-07T15:09:07;2.40;;;2.20;;
9481;SDS011;4779;48.062;11.672;2023-05-07T15:11:34;2.35;;;2.15;;
9481;SDS011;4779;48.062;11.672;2023-05-07T15:14:03;2.80;;;1.90;;
9481;SDS011;4779;48.062;11.672;2023-05-07T15:16:30;3.08;;;2.30;;